Time;durP1;ratioP1;P1;durP2;ratioP2;P2;SDS_P1;SDS_P2;PMS_P1;PMS_P2;Temp;Humidity;BMP_temperature;BMP_pressure;BME280_temperature;BME280_humidity;BME280_pressure;Samples;Min_cycle;Max_cycle;Signal;HPM_P1;HPM_P2
2021/11/23 00:01:44;;;;;;;15.63;9.43;;;10.70;99.90;;;;;;6245258;23;20003;-79
2021/11/23 00:04:10;;;;;;;13.15;9.25;;;10.60;99.90;;;;;;6246090;22;20000;-79
2021/11/23 00:06:37;;;;;;;18.63;9.40;;;10.60;99.90;;;;;;6245834;23;20011;-79
2021/11/23 00:09:04;;;;;;;13.43;8.85;;;10.60;99.90;;;;;;6245924;22;20004;-80
2021/11/23 00:11:30;;;;;;;13.27;9.20;;;10.60;99.90;;;;;;6245926;22;20008;-80
2021/11/23 00:13:56;;;;;;;15.18;9.20;;;10.60;99.90;;;;;;6245851;22;20004;-79
2021/11/23 00:16:22;;;;;;;10.35;8.02;;;10.60;99.90;;;;;;6245502;22;20428;-79
2021/11/23 00:18:48;;;;;;;11.93;8.45;;;10.60;99.90;;;;;;6244162;23;20000;-79
2021/11/23 00:21:15;;;;;;;10.40;7.93;;;10.60;99.90;;;;;;6245744;22;19996;-80
2021/11/23 00:23:42;;;;;;;11.60;8.07;;;10.60;99.90;;;;;;6245749;22;20003;-80
2021/11/23 00:26:07;;;;;;;10.63;7.00;;;10.60;99.90;;;;;;6245672;22;20005;-80
2021/11/23 00:28:34;;;;;;;11.40;8.43;;;10.60;99.90;;;;;;6245741;23;20343;-80
2021/11/23 00:30:59;;;;;;;10.77;8.60;;;10.60;99.90;;;;;;6243953;22;20012;-79
2021/11/23 00:33:31;;;;;;;12.00;8.43;;;10.60;99.90;;;;;;6240996;23;20008;-79
2021/11/23 00:35:56;;;;;;;12.27;8.43;;;10.60;99.90;;;;;;6241452;23;20019;-79
2021/11/23 00:38:22;;;;;;;12.20;8.00;;;10.60;99.90;;;;;;6242454;22;20012;-79
2021/11/23 00:40:48;;;;;;;9.82;7.68;;;10.60;99.90;;;;;;6242790;22;20428;-79
2021/11/23 00:43:14;;;;;;;10.55;7.70;;;10.60;99.90;;;;;;6242999;22;20548;-79
2021/11/23 00:45:41;;;;;;;10.77;7.78;;;10.60;99.90;;;;;;6242435;22;20004;-80
2021/11/23 00:48:09;;;;;;;12.90;7.30;;;10.60;99.90;;;;;;6241244;23;20393;-79
2021/11/23 00:50:35;;;;;;;10.05;7.32;;;10.60;99.90;;;;;;6242496;22;20007;-80
2021/11/23 00:53:03;;;;;;;9.88;7.22;;;10.60;99.90;;;;;;6245491;22;20344;-79
2021/11/23 00:55:31;;;;;;;10.15;7.53;;;10.60;99.90;;;;;;6245429;22;20011;-80
2021/11/23 00:57:57;;;;;;;9.45;7.55;;;10.60;99.90;;;;;;6241262;23;20028;-77
2021/11/23 01:00:23;;;;;;;11.68;8.13;;;10.60;99.90;;;;;;6242866;22;20004;-77
2021/11/23 01:02:49;;;;;;;9.40;6.85;;;10.60;99.90;;;;;;6242202;23;20469;-77
2021/11/23 01:05:14;;;;;;;7.97;6.82;;;10.60;99.90;;;;;;6241250;23;20004;-77
2021/11/23 01:07:40;;;;;;;8.35;6.18;;;10.60;99.90;;;;;;6242115;22;20004;-76
2021/11/23 01:10:08;;;;;;;11.73;7.03;;;10.60;99.90;;;;;;6241440;22;20008;-77
2021/11/23 01:12:35;;;;;;;14.10;7.72;;;10.60;99.90;;;;;;6241576;22;20452;-77
2021/11/23 01:15:01;;;;;;;10.32;7.00;;;10.60;99.90;;;;;;6243479;22;20383;-77
2021/11/23 01:17:26;;;;;;;12.07;7.55;;;10.60;99.90;;;;;;6244299;22;20088;-77
2021/11/23 01:19:52;;;;;;;10.18;7.13;;;10.60;99.90;;;;;;6247373;22;20004;-76
2021/11/23 01:22:18;;;;;;;10.52;7.55;;;10.60;99.90;;;;;;6247737;23;20075;-77
2021/11/23 01:24:44;;;;;;;9.98;7.30;;;10.60;99.90;;;;;;6247486;22;20010;-76
2021/11/23 01:27:09;;;;;;;11.63;8.10;;;10.60;99.90;;;;;;6247366;23;20000;-77
2021/11/23 01:29:36;;;;;;;14.82;7.57;;;10.60;99.90;;;;;;6245915;23;19999;-76
2021/11/23 01:32:02;;;;;;;9.68;7.03;;;10.60;99.90;;;;;;6247335;22;20001;-76
2021/11/23 01:34:28;;;;;;;9.18;6.18;;;10.50;99.90;;;;;;6247218;22;20079;-77
2021/11/23 01:36:54;;;;;;;10.13;7.28;;;10.50;99.90;;;;;;6245261;23;20042;-77
2021/11/23 01:39:20;;;;;;;12.23;7.03;;;10.50;99.90;;;;;;6247446;22;20076;-76
2021/11/23 01:41:46;;;;;;;9.77;6.18;;;10.50;99.90;;;;;;6245617;23;20007;-77
2021/11/23 01:44:12;;;;;;;11.32;6.82;;;10.50;99.90;;;;;;6242781;23;20034;-76
2021/11/23 01:46:37;;;;;;;8.65;6.47;;;10.50;99.90;;;;;;6244640;22;20004;-76
2021/11/23 01:49:04;;;;;;;10.15;7.00;;;10.50;99.90;;;;;;6242248;23;20095;-77
2021/11/23 01:51:30;;;;;;;10.48;7.30;;;10.60;99.90;;;;;;6242279;23;20000;-77
2021/11/23 01:53:56;;;;;;;7.90;6.07;;;10.60;99.90;;;;;;6244259;23;20004;-76
2021/11/23 01:56:22;;;;;;;12.93;7.50;;;10.60;99.90;;;;;;6243647;22;20031;-77
2021/11/23 01:58:48;;;;;;;11.52;7.65;;;10.60;99.90;;;;;;6243944;22;20012;-76
2021/11/23 02:01:14;;;;;;;9.52;7.05;;;10.60;99.90;;;;;;6243890;22;20057;-76
2021/11/23 02:03:40;;;;;;;10.50;7.03;;;10.50;99.90;;;;;;6242524;23;20095;-77
2021/11/23 02:06:07;;;;;;;12.07;7.90;;;10.50;99.90;;;;;;6245536;23;20009;-76
2021/11/23 02:08:33;;;;;;;11.70;7.15;;;10.40;99.90;;;;;;6247052;22;20004;-76
2021/11/23 02:10:59;;;;;;;9.35;5.97;;;10.40;99.90;;;;;;6247071;22;20004;-80
2021/11/23 02:13:28;;;;;;;11.55;6.75;;;10.50;99.90;;;;;;6247001;22;20035;-80
2021/11/23 02:15:57;;;;;;;10.05;6.93;;;10.40;99.90;;;;;;6244702;22;20028;-80
2021/11/23 02:18:23;;;;;;;12.50;7.13;;;10.40;99.90;;;;;;6241961;23;20008;-79
2021/11/23 02:20:50;;;;;;;11.73;7.32;;;10.40;99.90;;;;;;6244311;22;20328;-80
2021/11/23 02:23:17;;;;;;;9.27;6.97;;;10.40;99.90;;;;;;6242178;23;20000;-80
2021/11/23 02:25:43;;;;;;;12.23;7.35;;;10.30;99.90;;;;;;6241158;23;20015;-79
2021/11/23 02:28:09;;;;;;;11.75;7.63;;;10.30;99.90;;;;;;6244303;22;20023;-80
2021/11/23 02:30:42;;;;;;;8.98;6.65;;;10.30;99.90;;;;;;6243584;22;19996;-80
2021/11/23 02:33:08;;;;;;;10.52;6.18;;;10.30;99.90;;;;;;6242224;23;20010;-80
2021/11/23 02:35:33;;;;;;;10.25;6.55;;;10.40;99.90;;;;;;6244190;23;20082;-80
2021/11/23 02:38:00;;;;;;;14.15;6.50;;;10.40;99.90;;;;;;6243535;23;20004;-80
2021/11/23 02:40:26;;;;;;;9.20;6.72;;;10.30;99.90;;;;;;6243611;22;20477;-79
2021/11/23 02:42:52;;;;;;;7.80;6.82;;;10.30;99.90;;;;;;6244189;22;20003;-80
2021/11/23 02:45:20;;;;;;;8.68;5.95;;;10.30;99.90;;;;;;6241553;23;20004;-80
2021/11/23 02:47:46;;;;;;;10.70;6.72;;;10.30;99.90;;;;;;6241940;23;20008;-80
2021/11/23 02:50:15;;;;;;;9.07;6.30;;;10.20;99.90;;;;;;6242814;23;20008;-80
2021/11/23 02:52:47;;;;;;;9.88;7.03;;;10.20;99.90;;;;;;6246607;22;20373;-80
2021/11/23 02:55:14;;;;;;;9.18;5.93;;;10.20;99.90;;;;;;6244769;23;20004;-80
2021/11/23 02:57:40;;;;;;;11.90;6.80;;;10.20;99.90;;;;;;6244876;23;20057;-79
2021/11/23 03:00:19;;;;;;;8.25;6.57;;;10.20;99.90;;;;;;6246554;22;20436;-80
2021/11/23 03:02:47;;;;;;;10.15;6.88;;;10.20;99.90;;;;;;6246621;22;20000;-80
2021/11/23 03:05:15;;;;;;;8.68;6.55;;;10.20;99.90;;;;;;6246443;22;20000;-80
2021/11/23 03:07:41;;;;;;;8.60;6.18;;;10.20;99.90;;;;;;6244368;22;20118;-80
2021/11/23 03:10:09;;;;;;;7.50;5.90;;;10.20;99.90;;;;;;6243167;22;20000;-80
2021/11/23 03:12:36;;;;;;;10.40;6.63;;;10.20;99.90;;;;;;6243219;22;20007;-80
2021/11/23 03:15:02;;;;;;;6.85;6.15;;;10.10;99.90;;;;;;6243558;22;20004;-80
2021/11/23 03:17:28;;;;;;;6.40;5.53;;;10.10;99.90;;;;;;6242898;22;20024;-80
2021/11/23 03:19:54;;;;;;;8.10;6.50;;;10.10;99.90;;;;;;6243566;22;20454;-79
2021/11/23 03:22:19;;;;;;;8.00;6.13;;;10.10;99.90;;;;;;6241500;23;20071;-80
2021/11/23 03:24:46;;;;;;;8.57;5.88;;;10.20;99.90;;;;;;6241211;23;19996;-80
2021/11/23 03:27:13;;;;;;;10.35;6.75;;;10.20;99.90;;;;;;6243456;22;20006;-80
2021/11/23 03:29:40;;;;;;;9.85;6.50;;;10.10;99.90;;;;;;6246294;22;19997;-80
2021/11/23 03:32:07;;;;;;;8.20;6.70;;;10.20;99.90;;;;;;6244617;23;20053;-80
2021/11/23 03:34:40;;;;;;;8.73;6.25;;;10.20;99.90;;;;;;6240702;23;20038;-79
2021/11/23 03:37:18;;;;;;;7.18;5.90;;;10.20;99.90;;;;;;6241414;23;20015;-80
2021/11/23 03:39:44;;;;;;;11.85;7.22;;;10.10;99.90;;;;;;6243571;22;20074;-80
2021/11/23 03:42:10;;;;;;;11.13;6.72;;;10.10;99.90;;;;;;6241396;23;20027;-80
2021/11/23 03:44:37;;;;;;;6.85;6.10;;;10.10;99.90;;;;;;6242881;22;20000;-79
2021/11/23 03:47:06;;;;;;;8.57;5.65;;;10.10;99.90;;;;;;6241837;23;20099;-80
2021/11/23 03:49:32;;;;;;;7.43;6.05;;;10.10;99.90;;;;;;6242722;22;19999;-79
2021/11/23 03:51:58;;;;;;;10.10;6.00;;;10.00;99.90;;;;;;6241130;23;20008;-80
2021/11/23 03:54:25;;;;;;;7.35;6.15;;;10.00;99.90;;;;;;6245147;22;20028;-80
2021/11/23 03:56:51;;;;;;;7.85;5.35;;;10.00;99.90;;;;;;6245716;22;20000;-80
2021/11/23 03:59:18;;;;;;;10.38;6.35;;;10.00;99.90;;;;;;6245842;22;20467;-76
2021/11/23 04:01:44;;;;;;;6.93;5.70;;;10.00;99.90;;;;;;6246058;22;19996;-77
2021/11/23 04:04:11;;;;;;;9.10;6.40;;;10.00;99.90;;;;;;6245890;22;20026;-76
2021/11/23 04:06:37;;;;;;;8.75;5.90;;;10.00;99.90;;;;;;6244126;23;20004;-76
2021/11/23 04:09:03;;;;;;;7.90;5.93;;;10.00;99.90;;;;;;6244300;23;20011;-76
2021/11/23 04:11:29;;;;;;;6.57;5.55;;;10.00;99.90;;;;;;6245926;22;20000;-76
2021/11/23 04:13:55;;;;;;;6.78;5.35;;;10.00;99.90;;;;;;6244384;23;20031;-77
2021/11/23 04:16:23;;;;;;;7.53;5.70;;;9.90;99.90;;;;;;6245865;22;20019;-76
2021/11/23 04:18:50;;;;;;;7.00;5.65;;;9.90;99.90;;;;;;6244276;23;20377;-76
2021/11/23 04:21:16;;;;;;;9.23;5.85;;;9.80;99.90;;;;;;6244377;23;20000;-77
2021/11/23 04:23:42;;;;;;;8.23;6.00;;;9.80;99.90;;;;;;6245765;22;20000;-77
2021/11/23 04:26:07;;;;;;;7.05;5.85;;;9.80;99.90;;;;;;6245792;22;20390;-76
2021/11/23 04:28:33;;;;;;;6.13;5.07;;;9.70;99.90;;;;;;6245776;23;20008;-76
2021/11/23 04:30:59;;;;;;;9.48;5.70;;;9.80;99.90;;;;;;6245608;22;20027;-77
2021/11/23 04:33:25;;;;;;;8.73;6.53;;;9.70;99.90;;;;;;6245699;22;20007;-76
2021/11/23 04:35:51;;;;;;;6.13;5.45;;;9.80;99.90;;;;;;6245526;23;20008;-76
2021/11/23 04:38:16;;;;;;;7.72;6.13;;;9.70;99.90;;;;;;6245795;23;20000;-76
2021/11/23 04:40:42;;;;;;;9.52;5.97;;;9.70;99.90;;;;;;6245573;23;20003;-76
2021/11/23 04:43:09;;;;;;;7.50;5.68;;;9.70;99.90;;;;;;6244239;23;20001;-76
2021/11/23 04:45:36;;;;;;;7.93;5.55;;;9.70;99.90;;;;;;6244015;23;20091;-76
2021/11/23 04:48:02;;;;;;;8.23;5.93;;;9.70;99.90;;;;;;6244751;23;20004;-76
2021/11/23 04:50:28;;;;;;;7.65;5.55;;;9.70;99.90;;;;;;6247983;22;20004;-77
2021/11/23 04:52:54;;;;;;;6.75;6.15;;;9.60;99.90;;;;;;6247765;22;20000;-76
2021/11/23 04:55:21;;;;;;;7.65;5.50;;;9.60;99.90;;;;;;6246250;23;20340;-77
2021/11/23 04:57:47;;;;;;;8.00;6.07;;;9.50;99.90;;;;;;6241928;23;20347;-77
2021/11/23 05:00:17;;;;;;;7.20;5.40;;;9.50;99.90;;;;;;6243434;23;20091;-76
2021/11/23 05:02:44;;;;;;;8.60;6.22;;;9.50;99.90;;;;;;6245041;22;20004;-76
2021/11/23 05:05:11;;;;;;;9.35;5.35;;;9.50;99.90;;;;;;6243020;23;20000;-77
2021/11/23 05:07:38;;;;;;;7.18;6.00;;;9.40;99.90;;;;;;6244824;22;20000;-76
2021/11/23 05:10:05;;;;;;;8.43;6.00;;;9.40;99.90;;;;;;6244528;22;20065;-76
2021/11/23 05:12:31;;;;;;;7.18;6.40;;;9.40;99.90;;;;;;6242732;23;20004;-76
2021/11/23 05:14:57;;;;;;;6.70;5.80;;;9.30;99.90;;;;;;6244777;22;20057;-76
2021/11/23 05:17:22;;;;;;;7.07;5.40;;;9.30;99.90;;;;;;6244454;23;20035;-76
2021/11/23 05:19:48;;;;;;;11.05;5.35;;;9.30;99.90;;;;;;6247604;22;19997;-77
2021/11/23 05:22:14;;;;;;;8.00;5.53;;;9.30;99.90;;;;;;6247442;23;20067;-80
2021/11/23 05:24:40;;;;;;;7.65;5.63;;;9.30;99.90;;;;;;6247492;22;20007;-80
2021/11/23 05:27:07;;;;;;;6.78;5.43;;;9.20;99.90;;;;;;6247416;22;20035;-80
2021/11/23 05:29:33;;;;;;;11.60;6.50;;;9.20;99.90;;;;;;6247370;22;20099;-80
2021/11/23 05:31:58;;;;;;;7.78;5.38;;;9.10;99.90;;;;;;6247025;23;20032;-80
2021/11/23 05:34:24;;;;;;;7.93;6.53;;;9.20;99.90;;;;;;6246923;23;20053;-80
2021/11/23 05:36:50;;;;;;;10.48;6.43;;;9.20;99.90;;;;;;6245158;23;20313;-80
2021/11/23 05:39:16;;;;;;;8.00;6.72;;;9.10;99.90;;;;;;6246977;22;20027;-80
2021/11/23 05:41:42;;;;;;;6.72;6.00;;;9.10;99.90;;;;;;6243190;22;20423;-79
2021/11/23 05:44:09;;;;;;;9.68;6.20;;;9.10;99.90;;;;;;6243115;22;20004;-80
2021/11/23 05:46:36;;;;;;;10.10;6.07;;;9.10;99.90;;;;;;6243692;22;20397;-79
2021/11/23 05:49:02;;;;;;;8.60;6.80;;;9.10;99.90;;;;;;6243264;22;20079;-80
2021/11/23 05:51:28;;;;;;;8.93;6.50;;;9.10;99.90;;;;;;6242428;23;20035;-80
2021/11/23 05:53:54;;;;;;;9.13;6.72;;;9.10;99.90;;;;;;6241834;23;20030;-80
2021/11/23 05:56:20;;;;;;;10.10;6.88;;;9.10;99.90;;;;;;6242329;23;20436;-80
2021/11/23 05:58:46;;;;;;;7.07;6.03;;;9.10;99.90;;;;;;6241774;22;20105;-80
2021/11/23 06:01:11;;;;;;;7.72;6.18;;;9.00;99.90;;;;;;6243572;23;20471;-80
2021/11/23 06:03:37;;;;;;;13.13;6.63;;;9.00;99.90;;;;;;6247035;23;20023;-76
2021/11/23 06:06:03;;;;;;;7.72;6.38;;;8.90;99.90;;;;;;6247027;22;20431;-77
2021/11/23 06:08:29;;;;;;;7.32;6.03;;;8.90;99.90;;;;;;6246950;22;20000;-76
2021/11/23 06:10:55;;;;;;;7.38;6.00;;;8.80;99.90;;;;;;6246923;22;20004;-77
2021/11/23 06:13:21;;;;;;;7.78;6.63;;;8.80;99.90;;;;;;6245380;23;20384;-77
2021/11/23 06:15:47;;;;;;;10.65;6.03;;;8.80;99.90;;;;;;6246715;22;20012;-77
2021/11/23 06:18:14;;;;;;;7.82;6.32;;;8.80;99.90;;;;;;6246948;22;20001;-77
2021/11/23 06:20:53;;;;;;;8.32;6.88;;;8.80;99.90;;;;;;6245383;23;20070;-77
2021/11/23 06:23:20;;;;;;;7.10;6.03;;;8.80;99.90;;;;;;6246893;22;20023;-77
2021/11/23 06:25:49;;;;;;;8.77;6.28;;;8.80;99.90;;;;;;6245156;23;20008;-76
2021/11/23 06:28:16;;;;;;;6.60;5.88;;;8.80;99.90;;;;;;6245350;23;20488;-77
2021/11/23 06:30:42;;;;;;;8.02;6.05;;;8.80;99.90;;;;;;6246701;22;20493;-76
2021/11/23 06:33:09;;;;;;;7.28;6.43;;;8.90;99.90;;;;;;6246689;22;20004;-76
2021/11/23 06:35:35;;;;;;;8.40;6.43;;;8.90;99.90;;;;;;6246665;22;20026;-76
2021/11/23 06:38:02;;;;;;;11.82;6.68;;;8.90;99.90;;;;;;6244908;23;20013;-76
2021/11/23 06:40:28;;;;;;;8.20;6.15;;;8.80;99.90;;;;;;6245303;23;20007;-76
2021/11/23 06:42:53;;;;;;;9.38;6.80;;;8.80;99.90;;;;;;6246553;23;20002;-77
2021/11/23 06:45:19;;;;;;;9.50;7.20;;;8.80;99.90;;;;;;6246803;23;20000;-77
2021/11/23 06:47:50;;;;;;;11.82;6.80;;;8.70;99.90;;;;;;6245011;23;20011;-76
2021/11/23 06:50:17;;;;;;;7.82;6.60;;;8.70;99.90;;;;;;6245085;23;20008;-77
2021/11/23 06:52:43;;;;;;;10.05;7.18;;;8.70;99.90;;;;;;6241662;23;20494;-76
2021/11/23 06:55:09;;;;;;;9.48;7.10;;;8.70;99.90;;;;;;6242985;22;20451;-76
2021/11/23 06:57:35;;;;;;;9.05;7.20;;;8.70;99.90;;;;;;6241769;23;20058;-76
2021/11/23 07:00:01;;;;;;;9.15;6.60;;;8.70;99.90;;;;;;6241689;23;20000;-76
2021/11/23 07:02:27;;;;;;;10.23;7.03;;;8.70;99.90;;;;;;6243337;22;20027;-76
2021/11/23 07:04:52;;;;;;;7.82;6.28;;;8.60;99.90;;;;;;6243662;23;19997;-76
2021/11/23 07:07:18;;;;;;;8.80;6.60;;;8.60;99.90;;;;;;6242750;23;20141;-76
2021/11/23 07:09:44;;;;;;;8.38;7.13;;;8.50;99.90;;;;;;6243354;22;20000;-77
2021/11/23 07:12:11;;;;;;;9.32;6.88;;;8.50;99.90;;;;;;6244497;22;20322;-76
2021/11/23 07:14:38;;;;;;;9.80;6.50;;;8.60;99.90;;;;;;6246245;22;20000;-76
2021/11/23 07:17:04;;;;;;;12.20;8.05;;;8.60;99.90;;;;;;6246499;22;20087;-77
2021/11/23 07:19:29;;;;;;;8.50;7.20;;;8.60;99.90;;;;;;6246457;22;20062;-76
2021/11/23 07:21:55;;;;;;;7.85;5.97;;;8.60;99.90;;;;;;6244700;23;20004;-77
2021/11/23 07:24:21;;;;;;;8.32;7.18;;;8.60;99.90;;;;;;6244604;23;20008;-77
2021/11/23 07:26:47;;;;;;;7.57;6.72;;;8.60;99.90;;;;;;6242755;22;20000;-76
2021/11/23 07:29:13;;;;;;;9.82;6.97;;;8.50;99.90;;;;;;6241880;23;20014;-77
2021/11/23 07:31:38;;;;;;;8.45;6.68;;;8.60;99.90;;;;;;6241631;23;20086;-76
2021/11/23 07:34:05;;;;;;;7.82;6.40;;;8.60;99.90;;;;;;6241194;23;20042;-76
2021/11/23 07:36:31;;;;;;;10.85;7.45;;;8.60;99.90;;;;;;6241706;23;20008;-76
2021/11/23 07:39:01;;;;;;;10.48;7.40;;;8.70;99.90;;;;;;6242927;22;19996;-76
2021/11/23 07:41:28;;;;;;;8.50;6.63;;;8.70;99.90;;;;;;6242700;22;20447;-76
2021/11/23 07:43:55;;;;;;;9.48;6.22;;;8.70;99.90;;;;;;6243274;22;20004;-76
2021/11/23 07:46:21;;;;;;;8.18;6.53;;;8.80;99.90;;;;;;6242861;23;20481;-76
2021/11/23 07:48:47;;;;;;;12.55;7.45;;;8.70;99.90;;;;;;6244417;23;20004;-76
2021/11/23 07:51:13;;;;;;;8.20;6.85;;;8.80;99.90;;;;;;6246081;23;19995;-77
2021/11/23 07:53:39;;;;;;;10.82;7.53;;;8.80;99.90;;;;;;6246333;22;20079;-76
2021/11/23 07:56:06;;;;;;;11.20;7.50;;;8.90;99.90;;;;;;6244339;23;20035;-77
2021/11/23 07:58:31;;;;;;;12.73;7.53;;;8.90;99.90;;;;;;6245830;23;20455;-76
2021/11/23 08:00:58;;;;;;;10.32;6.90;;;8.90;99.90;;;;;;6245462;23;20023;-77
2021/11/23 08:03:25;;;;;;;9.80;7.07;;;9.00;99.90;;;;;;6244441;23;20000;-76
2021/11/23 08:05:51;;;;;;;8.43;6.78;;;9.00;99.90;;;;;;6244226;23;20364;-76
2021/11/23 08:08:16;;;;;;;10.23;6.68;;;9.10;99.90;;;;;;6244491;23;20008;-76
2021/11/23 08:10:42;;;;;;;9.60;6.15;;;9.10;99.90;;;;;;6245987;22;20000;-77
2021/11/23 08:13:09;;;;;;;10.82;6.97;;;9.20;99.90;;;;;;6244098;23;20425;-76
2021/11/23 08:15:36;;;;;;;9.75;6.00;;;9.30;99.90;;;;;;6244102;22;20007;-76
2021/11/23 08:18:04;;;;;;;11.95;6.32;;;9.40;99.90;;;;;;6242528;22;20332;-76
2021/11/23 08:20:30;;;;;;;9.55;6.93;;;9.50;99.90;;;;;;6242909;22;20470;-76
2021/11/23 08:22:55;;;;;;;8.75;6.38;;;9.60;99.90;;;;;;6242884;22;19996;-76
2021/11/23 08:25:21;;;;;;;11.65;6.07;;;9.70;99.90;;;;;;6242227;22;20004;-76
2021/11/23 08:27:49;;;;;;;13.88;7.00;;;9.80;99.90;;;;;;6241186;23;20004;-76
2021/11/23 08:30:15;;;;;;;10.18;7.63;;;9.90;99.90;;;;;;6240350;23;20004;-77
2021/11/23 08:32:42;;;;;;;8.35;7.05;;;10.00;99.90;;;;;;6240552;23;20008;-76
2021/11/23 08:35:09;;;;;;;6.47;5.50;;;10.10;99.90;;;;;;6242812;22;20007;-76
2021/11/23 08:37:35;;;;;;;5.82;5.22;;;10.20;99.90;;;;;;6244795;22;20083;-76
2021/11/23 08:40:02;;;;;;;6.05;5.18;;;10.20;99.90;;;;;;6244147;23;20008;-80
2021/11/23 08:42:28;;;;;;;7.50;5.35;;;10.30;99.90;;;;;;6245870;22;20000;-80
2021/11/23 08:44:54;;;;;;;6.57;5.68;;;10.30;99.90;;;;;;6244240;23;20031;-80
2021/11/23 08:47:21;;;;;;;5.35;4.60;;;10.30;99.90;;;;;;6243976;23;20004;-81
2021/11/23 08:49:48;;;;;;;6.70;5.35;;;10.30;99.90;;;;;;6240793;23;20000;-80
2021/11/23 08:52:15;;;;;;;5.63;5.07;;;10.40;99.90;;;;;;6241515;23;20086;-80
2021/11/23 08:54:41;;;;;;;7.65;4.22;;;10.50;99.90;;;;;;6240731;23;20363;-80
2021/11/23 08:57:08;;;;;;;8.65;5.15;;;10.50;99.90;;;;;;6241797;22;20000;-81
2021/11/23 08:59:40;;;;;;;6.10;5.25;;;10.50;99.90;;;;;;6241927;22;20008;-80
2021/11/23 09:02:07;;;;;;;5.30;4.72;;;10.60;99.90;;;;;;6242628;22;20000;-80
2021/11/23 09:04:36;;;;;;;5.13;4.55;;;10.60;99.90;;;;;;6242098;22;20079;-80
2021/11/23 09:07:04;;;;;;;4.57;4.13;;;10.60;99.90;;;;;;6240618;23;20019;-80
2021/11/23 09:09:31;;;;;;;5.63;3.80;;;10.60;99.90;;;;;;6240997;23;20028;-80
2021/11/23 09:12:01;;;;;;;4.13;3.60;;;10.60;99.90;;;;;;6240498;23;20034;-80
2021/11/23 09:14:31;;;;;;;4.90;4.40;;;10.60;99.90;;;;;;6242177;22;20004;-80
2021/11/23 09:16:58;;;;;;;4.60;3.30;;;10.60;99.90;;;;;;6242894;22;20340;-80
2021/11/23 09:19:24;;;;;;;7.68;4.25;;;10.60;99.90;;;;;;6242053;22;20007;-81
2021/11/23 09:21:50;;;;;;;4.55;3.85;;;10.70;99.90;;;;;;6240450;23;20000;-80
2021/11/23 09:24:16;;;;;;;5.10;4.55;;;10.70;99.90;;;;;;6241206;23;20428;-80
2021/11/23 09:26:44;;;;;;;4.07;3.75;;;10.70;99.90;;;;;;6240514;23;20004;-81
2021/11/23 09:29:10;;;;;;;9.57;4.30;;;10.70;99.90;;;;;;6240501;23;20099;-79
2021/11/23 09:31:36;;;;;;;4.85;3.58;;;10.80;99.90;;;;;;6242595;22;20031;-80
2021/11/23 09:34:02;;;;;;;6.97;4.15;;;10.90;99.90;;;;;;6241061;23;20543;-80
2021/11/23 09:36:28;;;;;;;4.70;3.65;;;10.90;99.90;;;;;;6244528;23;20209;-80
2021/11/23 09:38:53;;;;;;;4.07;3.40;;;11.10;99.90;;;;;;6242877;23;20000;-80
2021/11/23 09:41:19;;;;;;;5.82;4.78;;;11.20;99.90;;;;;;6242470;23;20004;-80
2021/11/23 09:43:45;;;;;;;5.07;3.72;;;11.30;99.90;;;;;;6244624;22;19996;-79
2021/11/23 09:46:11;;;;;;;7.90;4.35;;;11.40;99.90;;;;;;6243851;22;20004;-79
2021/11/23 09:48:42;;;;;;;7.97;5.18;;;11.50;99.90;;;;;;6244261;22;20004;-80
2021/11/23 09:51:16;;;;;;;4.22;3.58;;;11.60;99.90;;;;;;6244470;22;20027;-80
2021/11/23 09:53:42;;;;;;;4.30;3.35;;;11.70;99.90;;;;;;6242878;23;20004;-80
2021/11/23 09:56:10;;;;;;;4.43;2.88;;;11.80;99.90;;;;;;6241693;23;20011;-80
2021/11/23 09:58:36;;;;;;;10.85;4.82;;;11.90;99.90;;;;;;6242307;23;20042;-79
2021/11/23 10:01:10;;;;;;;4.70;2.50;;;11.90;99.90;;;;;;6243979;23;19996;-80
2021/11/23 10:03:38;;;;;;;2.70;2.50;;;12.00;99.90;;;;;;6241997;23;20087;-79
2021/11/23 10:06:08;;;;;;;8.90;2.97;;;12.10;99.90;;;;;;6243468;22;20000;-78
2021/11/23 10:08:38;;;;;;;4.30;2.65;;;12.20;99.90;;;;;;6244277;23;20034;-80
2021/11/23 10:11:05;;;;;;;4.15;3.72;;;12.20;99.90;;;;;;6241767;23;20008;-80
2021/11/23 10:13:55;;;;;;;3.28;2.53;;;12.30;99.90;;;;;;6243749;22;20885;-79
2021/11/23 10:16:22;;;;;;;2.70;2.50;;;12.30;99.90;;;;;;6242485;23;20008;-80
2021/11/23 10:18:51;;;;;;;5.80;3.60;;;12.30;99.90;;;;;;6243832;22;20004;-80
2021/11/23 10:21:19;;;;;;;3.55;2.70;;;12.40;99.90;;;;;;6242224;23;20440;-82
2021/11/23 10:23:52;;;;;;;4.63;2.60;;;12.40;99.90;;;;;;6243800;22;20764;-83
2021/11/23 10:26:30;;;;;;;3.78;1.90;;;12.50;99.90;;;;;;6242063;23;20012;-81
2021/11/23 10:28:56;;;;;;;4.35;2.25;;;12.70;99.90;;;;;;6243791;22;20007;-79
2021/11/23 10:31:30;;;;;;;3.15;2.13;;;12.80;99.90;;;;;;6243477;23;20000;-80
2021/11/23 10:34:08;;;;;;;4.43;2.58;;;12.80;99.90;;;;;;6242250;23;20007;-80
2021/11/23 10:36:38;;;;;;;2.92;2.03;;;12.80;99.90;;;;;;6241598;23;20015;-79
2021/11/23 10:39:17;;;;;;;2.25;1.90;;;12.80;99.90;;;;;;6242069;23;20563;-80
2021/11/23 10:41:49;;;;;;;4.35;2.20;;;12.80;99.90;;;;;;6244284;22;20083;-80
2021/11/23 10:44:24;;;;;;;3.78;2.67;;;12.80;99.90;;;;;;6242285;23;20007;-80
2021/11/23 10:47:02;;;;;;;4.15;2.47;;;12.80;99.90;;;;;;6242979;22;20004;-80
2021/11/23 10:49:31;;;;;;;2.28;2.08;;;12.80;99.90;;;;;;6243290;22;20010;-79
2021/11/23 10:51:57;;;;;;;2.55;2.35;;;12.70;99.90;;;;;;6243403;22;20000;-80
2021/11/23 10:54:23;;;;;;;4.43;2.15;;;12.70;99.90;;;;;;6242375;23;20011;-80
2021/11/23 10:57:01;;;;;;;3.75;2.38;;;12.70;99.90;;;;;;6241565;23;20004;-80
2021/11/23 10:59:27;;;;;;;2.40;2.20;;;12.80;99.90;;;;;;6241625;23;20066;-81
2021/11/23 11:01:54;;;;;;;5.00;3.22;;;12.80;99.90;;;;;;6243378;22;20420;-80
2021/11/23 11:04:20;;;;;;;13.50;6.18;;;12.80;99.90;;;;;;6244242;23;20011;-81
2021/11/23 11:06:48;;;;;;;3.42;2.83;;;12.80;99.90;;;;;;6246458;22;20004;-81
2021/11/23 11:09:18;;;;;;;3.42;2.33;;;12.90;99.90;;;;;;6244785;23;20313;-80
2021/11/23 11:11:44;;;;;;;5.35;3.00;;;12.90;99.90;;;;;;6246549;22;20028;-80
2021/11/23 11:14:13;;;;;;;4.10;3.33;;;12.90;99.90;;;;;;6244089;22;20026;-76
2021/11/23 11:16:40;;;;;;;3.80;3.00;;;12.90;99.90;;;;;;6240828;23;20454;-76
2021/11/23 11:19:08;;;;;;;4.53;2.40;;;12.90;99.90;;;;;;6243541;22;19996;-75
2021/11/23 11:21:47;;;;;;;2.53;2.33;;;12.90;99.90;;;;;;6241181;23;20008;-76
2021/11/23 11:24:27;;;;;;;3.67;2.45;;;12.90;99.90;;;;;;6242854;23;20028;-76
2021/11/23 11:27:00;;;;;;;2.75;2.45;;;12.80;99.90;;;;;;6241129;23;20572;-75
2021/11/23 11:29:28;;;;;;;2.40;2.17;;;12.80;99.90;;;;;;6242744;22;20550;-76
2021/11/23 11:31:54;;;;;;;3.53;2.38;;;12.80;99.90;;;;;;6240855;23;20336;-76
2021/11/23 11:34:26;;;;;;;2.83;2.22;;;12.80;99.90;;;;;;6241289;23;20030;-76
2021/11/23 11:37:09;;;;;;;2.45;2.25;;;12.90;99.90;;;;;;6240954;23;20538;-76
2021/11/23 11:39:39;;;;;;;2.50;1.90;;;12.80;99.90;;;;;;6241278;23;20004;-76
2021/11/23 11:42:30;;;;;;;1.92;1.83;;;12.80;99.90;;;;;;6240599;23;20000;-76
2021/11/23 11:44:57;;;;;;;5.20;2.50;;;12.90;99.90;;;;;;6242897;23;20066;-76
2021/11/23 11:47:34;;;;;;;3.63;2.28;;;12.90;99.90;;;;;;6241134;23;20062;-76
2021/11/23 11:50:03;;;;;;;2.28;2.13;;;12.90;99.90;;;;;;6240708;23;20548;-76
2021/11/23 11:52:51;;;;;;;2.78;2.53;;;12.90;99.90;;;;;;6240483;23;20000;-76
2021/11/23 11:55:19;;;;;;;2.78;2.58;;;12.90;99.90;;;;;;6243020;23;20087;-76
2021/11/23 11:57:51;;;;;;;4.43;2.85;;;12.90;99.90;;;;;;6245802;22;20000;-76
2021/11/23 12:00:31;;;;;;;2.63;2.42;;;12.90;99.90;;;;;;6244459;23;20011;-76
2021/11/23 12:03:09;;;;;;;3.10;2.50;;;12.90;99.90;;;;;;6245913;22;20001;-76
2021/11/23 12:05:50;;;;;;;2.33;2.13;;;12.90;99.90;;;;;;6245813;22;20101;-76
2021/11/23 12:08:21;;;;;;;2.25;2.05;;;12.90;99.90;;;;;;6245159;22;20011;-76
2021/11/23 12:10:47;;;;;;;2.70;2.47;;;12.90;99.90;;;;;;6242653;22;20359;-76
2021/11/23 12:13:41;;;;;;;3.67;3.05;;;12.90;99.90;;;;;;6242284;22;20039;-76
2021/11/23 12:16:14;;;;;;;3.60;2.90;;;12.80;99.90;;;;;;6242649;22;20038;-76
2021/11/23 12:19:25;;;;;;;5.03;3.85;;;12.80;99.60;;;;;;6241190;23;20004;-75
2021/11/23 12:21:57;;;;;;;4.30;3.00;;;12.80;99.90;;;;;;6241398;23;20004;-76
2021/11/23 12:24:38;;;;;;;3.42;2.35;;;12.80;99.90;;;;;;6240469;23;20626;-76
2021/11/23 12:27:09;;;;;;;2.13;1.98;;;12.90;99.30;;;;;;6242483;22;20027;-76
2021/11/23 12:29:35;;;;;;;3.33;2.78;;;12.90;99.70;;;;;;6241945;22;20032;-76
2021/11/23 12:32:01;;;;;;;5.10;2.65;;;13.00;99.90;;;;;;6241813;22;20004;-76
2021/11/23 12:34:27;;;;;;;3.03;2.70;;;13.00;99.90;;;;;;6242438;22;20428;-76
2021/11/23 12:36:56;;;;;;;3.17;2.70;;;13.00;99.20;;;;;;6240035;23;20078;-76
2021/11/23 12:39:37;;;;;;;3.08;2.33;;;13.00;98.50;;;;;;6239572;23;20004;-75
2021/11/23 12:42:09;;;;;;;6.07;2.90;;;13.00;98.90;;;;;;6238433;23;20332;-76
2021/11/23 12:44:41;;;;;;;;;;;13.00;99.90;;;;;;6240623;22;20051;-76
2021/11/23 12:47:16;;;;;;;3.35;2.85;;;13.00;99.90;;;;;;6239331;23;20227;-76
2021/11/23 12:49:53;;;;;;;5.30;3.30;;;13.00;99.90;;;;;;6241412;22;20536;-76
2021/11/23 12:52:21;;;;;;;3.70;3.35;;;13.10;99.90;;;;;;6241905;22;20007;-76